createdAt,value
2023-07-04T00:01:08.835Z,20.5
2023-07-04T00:03:09.023Z,20.4
2023-07-04T00:05:08.962Z,20.5
2023-07-04T00:07:11.046Z,20.8
2023-07-04T00:09:08.898Z,20.8
2023-07-04T00:11:08.885Z,21.0
2023-07-04T00:13:08.906Z,21.3
2023-07-04T00:15:08.818Z,21.1
2023-07-04T00:17:08.852Z,21.6
2023-07-04T00:19:08.827Z,21.9
2023-07-04T00:23:16.770Z,21.7
2023-07-04T00:25:16.944Z,21.8
2023-07-04T00:27:16.848Z,22.0
2023-07-04T00:29:16.918Z,22.1
2023-07-04T00:31:16.834Z,22.1
2023-07-04T00:33:16.797Z,22.3
2023-07-04T00:35:17.053Z,22.5
2023-07-04T00:37:16.750Z,22.4
2023-07-04T00:39:17.196Z,22.4
2023-07-04T00:41:22.469Z,22.6
2023-07-04T00:43:16.760Z,22.5
2023-07-04T00:45:16.781Z,22.6
2023-07-04T00:47:16.942Z,22.7
2023-07-04T00:49:17.613Z,22.5
2023-07-04T00:51:16.891Z,22.6
2023-07-04T00:53:17.128Z,22.4
2023-07-04T00:55:16.844Z,22.4
2023-07-04T00:57:16.881Z,22.2
2023-07-04T00:59:16.773Z,22.3
2023-07-04T01:01:16.891Z,22.4
2023-07-04T01:03:16.801Z,22.1
2023-07-04T01:05:16.906Z,22.0
2023-07-04T01:07:16.827Z,21.9
2023-07-04T01:09:16.813Z,22.1
2023-07-04T01:11:16.829Z,21.9
2023-07-04T01:13:16.969Z,21.6
2023-07-04T01:15:17.127Z,21.4
2023-07-04T01:17:17.019Z,21.0
2023-07-04T01:19:16.760Z,20.9
2023-07-04T01:21:16.781Z,20.8
2023-07-04T01:23:16.770Z,21.1
2023-07-04T01:25:16.747Z,20.9
2023-07-04T01:27:17.124Z,21.2
2023-07-04T01:29:16.848Z,21.0
2023-07-04T01:32:17.067Z,21.0
2023-07-04T01:34:21.789Z,20.7
2023-07-04T01:36:16.772Z,20.5
2023-07-04T01:38:18.216Z,20.5
2023-07-04T01:40:19.579Z,20.1
2023-07-04T01:42:16.812Z,20.0
2023-07-04T01:44:17.215Z,19.9
2023-07-04T01:46:18.556Z,20.0
2023-07-04T01:48:17.092Z,20.0
2023-07-04T01:50:16.956Z,20.1
2023-07-04T01:52:17.061Z,20.2
2023-07-04T01:54:16.801Z,20.0
2023-07-04T01:56:16.835Z,20.1
2023-07-04T01:58:16.880Z,20.1
2023-07-04T02:00:17.032Z,20.4
2023-07-04T02:02:16.922Z,20.6
2023-07-04T02:04:16.835Z,21.1
2023-07-04T02:06:16.875Z,21.0
2023-07-04T02:08:16.808Z,21.0
2023-07-04T02:10:17.043Z,20.9
2023-07-04T02:12:17.176Z,20.7
2023-07-04T02:14:16.874Z,21.0
2023-07-04T02:16:21.448Z,20.9
2023-07-04T02:18:16.797Z,20.9
2023-07-04T02:20:16.865Z,20.9
2023-07-04T02:22:16.846Z,21.0
2023-07-04T02:24:16.962Z,21.0
2023-07-04T02:26:17.304Z,20.9
2023-07-04T02:28:16.793Z,21.0
2023-07-04T02:30:16.821Z,20.6
2023-07-04T02:32:16.847Z,20.5
2023-07-04T02:34:16.832Z,20.6
2023-07-04T02:36:21.701Z,20.7
2023-07-04T02:38:16.956Z,20.9
2023-07-04T02:40:16.874Z,21.0
2023-07-04T02:42:16.934Z,21.1
2023-07-04T02:44:17.032Z,21.4
2023-07-04T02:46:16.864Z,21.6
2023-07-04T02:48:16.931Z,21.2
2023-07-04T02:50:21.712Z,21.3
2023-07-04T02:52:16.903Z,21.4
2023-07-04T02:54:16.925Z,21.3
2023-07-04T02:56:16.903Z,21.3
2023-07-04T02:58:16.850Z,21.1
2023-07-04T03:00:16.987Z,20.9
2023-07-04T03:02:17.024Z,21.0
2023-07-04T03:04:16.946Z,20.9
2023-07-04T03:06:17.103Z,21.3
2023-07-04T03:08:16.857Z,21.3
2023-07-04T03:10:16.934Z,21.5
2023-07-04T03:12:16.918Z,21.6
2023-07-04T03:14:16.931Z,21.4
2023-07-04T03:16:17.082Z,21.7
2023-07-04T03:18:17.171Z,22.0
2023-07-04T03:20:16.940Z,22.0
2023-07-04T03:22:17.597Z,22.0
2023-07-04T03:24:16.884Z,21.9
2023-07-04T03:26:16.842Z,21.8
2023-07-04T03:28:16.961Z,22.0
2023-07-04T03:30:17.079Z,22.3
2023-07-04T03:32:16.993Z,22.3
2023-07-04T03:34:16.933Z,22.2
2023-07-04T03:36:16.906Z,22.2
2023-07-04T03:38:16.999Z,22.0
2023-07-04T03:40:17.000Z,21.9
2023-07-04T03:42:16.884Z,21.8
2023-07-04T03:44:16.896Z,21.4
2023-07-04T03:46:16.862Z,21.3
2023-07-04T03:48:17.000Z,21.6
2023-07-04T03:50:16.910Z,21.5
2023-07-04T03:52:16.987Z,21.5
2023-07-04T03:54:16.925Z,21.6
2023-07-04T03:56:16.895Z,21.9
2023-07-04T03:58:17.160Z,21.8
2023-07-04T04:00:16.972Z,22.1
2023-07-04T04:02:17.055Z,22.0
2023-07-04T04:04:17.030Z,21.9
2023-07-04T04:06:16.984Z,21.7
2023-07-04T04:08:17.472Z,22.0
2023-07-04T04:10:16.994Z,21.9
2023-07-04T04:12:16.905Z,22.1
2023-07-04T04:14:19.643Z,22.5
2023-07-04T04:16:17.061Z,22.2
2023-07-04T04:18:21.793Z,21.6
2023-07-04T04:20:16.938Z,21.6
2023-07-04T04:22:16.989Z,21.5
2023-07-04T04:24:16.998Z,21.4
2023-07-04T04:26:17.311Z,21.2
2023-07-04T04:28:16.897Z,20.9
2023-07-04T04:30:17.097Z,20.7
2023-07-04T04:32:16.970Z,20.8
2023-07-04T04:34:16.929Z,21.0
2023-07-04T04:36:16.974Z,21.2
2023-07-04T04:38:17.135Z,21.3
2023-07-04T04:40:16.976Z,21.4
2023-07-04T04:42:16.946Z,21.7
2023-07-04T04:44:17.001Z,21.9
2023-07-04T04:46:17.009Z,22.1
2023-07-04T04:48:17.021Z,21.9
2023-07-04T04:50:21.167Z,21.8
2023-07-04T04:52:16.898Z,21.6
2023-07-04T04:54:17.069Z,21.5
2023-07-04T04:56:17.025Z,21.5
2023-07-04T04:58:16.988Z,21.4
2023-07-04T05:00:16.949Z,21.1
2023-07-04T05:02:16.955Z,20.9
2023-07-04T05:04:17.162Z,20.8
2023-07-04T05:07:16.952Z,20.5
2023-07-04T05:09:16.965Z,20.5
2023-07-04T05:11:16.987Z,18.0
2023-07-04T05:13:17.046Z,19.0
2023-07-04T05:15:16.964Z,21.0
2023-07-04T05:17:17.003Z,20.8
2023-07-04T05:19:17.013Z,20.4
2023-07-04T05:21:17.034Z,21.0
2023-07-04T05:23:21.525Z,20.6
2023-07-04T05:25:22.820Z,20.4
2023-07-04T05:27:17.024Z,20.2
2023-07-04T05:29:16.985Z,19.9
2023-07-04T05:31:16.994Z,20.0
2023-07-04T05:33:16.938Z,20.8
2023-07-04T05:35:17.104Z,20.8
2023-07-04T05:37:17.061Z,21.0
2023-07-04T05:39:17.119Z,20.7
2023-07-04T05:41:17.032Z,20.6
2023-07-04T05:43:16.979Z,20.5
2023-07-04T05:45:17.006Z,20.2
2023-07-04T05:47:17.260Z,20.2
2023-07-04T05:49:21.930Z,20.2
2023-07-04T05:51:17.039Z,20.2
2023-07-04T05:53:17.027Z,20.4
2023-07-04T05:55:17.018Z,20.7
2023-07-04T05:57:16.989Z,21.1
2023-07-04T05:59:17.050Z,21.3
2023-07-04T06:01:17.023Z,21.3
2023-07-04T06:03:17.117Z,21.5
2023-07-04T06:05:17.203Z,21.7
2023-07-04T06:07:17.134Z,21.7
2023-07-04T06:09:16.973Z,21.8
2023-07-04T06:11:17.039Z,21.9
2023-07-04T06:13:19.172Z,21.5
2023-07-04T06:15:17.157Z,21.2
2023-07-04T06:17:17.111Z,21.2
2023-07-04T06:19:17.148Z,21.1
2023-07-04T06:21:18.563Z,21.0
2023-07-04T06:23:17.932Z,21.1
2023-07-04T06:27:38.419Z,21.5
2023-07-04T06:29:38.322Z,21.6
2023-07-04T06:30:41.165Z,21.6
2023-07-04T06:33:40.488Z,21.5
2023-07-04T06:35:38.221Z,21.6
2023-07-04T06:37:38.522Z,21.4
2023-07-04T06:39:38.405Z,21.6
2023-07-04T06:41:38.362Z,21.6
2023-07-04T06:43:38.435Z,21.9
2023-07-04T06:45:38.410Z,22.1
2023-07-04T06:47:41.207Z,21.9
2023-07-04T06:49:38.298Z,22.1
2023-07-04T06:51:38.346Z,21.9
2023-07-04T06:53:38.450Z,21.9
2023-07-04T06:55:39.308Z,21.9
2023-07-04T06:57:38.372Z,21.5
2023-07-04T06:59:38.399Z,21.5
2023-07-04T07:01:38.652Z,21.5
2023-07-04T07:03:38.447Z,21.3
2023-07-04T07:05:38.265Z,21.0
2023-07-04T07:07:38.341Z,20.7
2023-07-04T07:09:43.174Z,20.7
2023-07-04T07:11:38.301Z,20.8
2023-07-04T07:13:38.381Z,21.1
2023-07-04T07:15:43.493Z,21.5
2023-07-04T07:17:38.781Z,21.5
2023-07-04T07:19:40.445Z,21.6
2023-07-04T07:21:38.262Z,21.7
2023-07-04T07:23:39.012Z,21.7
2023-07-04T07:25:38.293Z,22.0
2023-07-04T07:27:38.308Z,21.6
2023-07-04T07:29:38.455Z,21.6
2023-07-04T07:31:38.363Z,21.5
2023-07-04T07:33:38.349Z,21.4
2023-07-04T07:35:38.354Z,21.2
2023-07-04T07:37:38.630Z,21.4
2023-07-04T07:39:38.477Z,21.3
2023-07-04T07:41:40.397Z,21.2
2023-07-04T07:43:38.341Z,21.3
2023-07-04T07:45:38.303Z,21.3
2023-07-04T07:47:43.497Z,21.5
2023-07-04T07:49:38.300Z,21.4
2023-07-04T07:51:38.336Z,21.5
2023-07-04T07:53:38.443Z,21.5
2023-07-04T07:55:41.228Z,21.4
2023-07-04T07:57:38.397Z,21.6
2023-07-04T07:59:38.575Z,21.4
2023-07-04T08:01:38.419Z,21.4
2023-07-04T08:03:38.398Z,21.5
2023-07-04T08:05:38.385Z,21.9
2023-07-04T08:07:38.438Z,22.2
2023-07-04T08:09:38.412Z,22.0
2023-07-04T08:11:38.395Z,22.0
2023-07-04T08:13:38.478Z,21.8
2023-07-04T08:15:38.942Z,21.7
2023-07-04T08:17:38.369Z,21.7
2023-07-04T08:19:38.444Z,22.0
2023-07-04T08:21:43.277Z,21.7
2023-07-04T08:23:38.365Z,21.8
2023-07-04T08:25:44.636Z,21.3
2023-07-04T08:27:38.362Z,21.2
2023-07-04T08:29:38.418Z,21.2
2023-07-04T08:31:38.448Z,21.3
2023-07-04T08:33:41.335Z,21.2
2023-07-04T08:35:38.408Z,21.3
2023-07-04T08:37:38.441Z,21.4
2023-07-04T08:39:38.357Z,21.4
2023-07-04T08:41:38.448Z,21.5
2023-07-04T08:43:38.387Z,21.1
2023-07-04T08:45:38.406Z,21.1
2023-07-04T08:47:38.462Z,21.0
2023-07-04T08:49:38.396Z,21.2
2023-07-04T08:51:39.655Z,21.2
2023-07-04T08:53:38.406Z,21.1
2023-07-04T08:55:38.420Z,20.8
2023-07-04T08:57:38.508Z,20.4
2023-07-04T08:59:38.408Z,20.3
2023-07-04T09:01:38.543Z,20.3
2023-07-04T09:03:39.837Z,20.1
2023-07-04T09:05:38.400Z,20.1
2023-07-04T09:07:38.377Z,20.1
2023-07-04T09:09:38.924Z,20.3
2023-07-04T09:11:39.498Z,20.5
2023-07-04T09:13:38.567Z,20.6
2023-07-04T09:15:38.398Z,20.5
2023-07-04T09:17:41.146Z,20.8
2023-07-04T09:19:38.386Z,20.7
2023-07-04T09:21:38.424Z,20.8
2023-07-04T09:23:38.467Z,20.8
2023-07-04T09:25:38.413Z,20.7
2023-07-04T09:27:38.420Z,20.9
2023-07-04T09:29:38.571Z,20.7
2023-07-04T09:31:39.530Z,20.6
2023-07-04T09:33:38.528Z,20.6
2023-07-04T09:35:38.418Z,20.5
2023-07-04T09:37:38.457Z,20.4
2023-07-04T09:39:38.536Z,20.4
2023-07-04T09:41:54.468Z,20.4
2023-07-04T09:43:38.451Z,20.4
2023-07-04T09:45:42.612Z,20.1
2023-07-04T09:47:38.558Z,20.3
2023-07-04T09:49:38.470Z,20.0
2023-07-04T09:51:38.512Z,20.0
2023-07-04T09:53:38.622Z,20.2
2023-07-04T09:55:38.492Z,20.3
2023-07-04T09:57:38.579Z,20.5
2023-07-04T09:59:38.473Z,20.6
2023-07-04T10:01:38.514Z,20.7
2023-07-04T10:03:38.589Z,20.9
2023-07-04T10:05:38.540Z,20.9
2023-07-04T10:07:38.576Z,20.7
2023-07-04T10:09:38.494Z,20.6
2023-07-04T10:11:38.530Z,20.5
2023-07-04T10:13:38.604Z,20.5
2023-07-04T10:15:44.084Z,20.4
2023-07-04T10:18:38.544Z,19.8
2023-07-04T10:19:42.715Z,19.9
2023-07-04T10:22:38.470Z,19.8
2023-07-04T10:24:40.660Z,19.7
2023-07-04T10:26:38.533Z,19.9
2023-07-04T10:28:38.506Z,20.3
2023-07-04T10:30:47.206Z,20.4
2023-07-04T10:32:38.594Z,20.3
2023-07-04T10:34:38.445Z,20.2
2023-07-04T10:36:38.614Z,20.1
2023-07-04T10:38:38.647Z,20.1
2023-07-04T10:40:38.594Z,20.3
2023-07-04T10:42:38.699Z,20.5
2023-07-04T10:44:38.641Z,20.9
2023-07-04T10:46:38.631Z,21.0
2023-07-04T10:48:38.609Z,21.1
2023-07-04T10:50:38.630Z,21.1
2023-07-04T10:52:38.608Z,21.0
2023-07-04T10:54:38.617Z,21.2
2023-07-04T10:56:38.533Z,21.1
2023-07-04T10:58:38.547Z,21.3
2023-07-04T11:00:38.508Z,21.3
2023-07-04T11:02:38.799Z,21.2
2023-07-04T11:04:40.220Z,21.0
2023-07-04T11:06:38.626Z,20.7
2023-07-04T11:08:38.499Z,20.6
2023-07-04T11:10:38.574Z,20.5
2023-07-04T11:12:38.817Z,20.6
2023-07-04T11:14:38.701Z,20.4
2023-07-04T11:16:40.745Z,20.3
2023-07-04T11:18:38.582Z,20.3
2023-07-04T11:20:38.759Z,20.1
2023-07-04T11:22:40.279Z,20.5
2023-07-04T11:24:38.591Z,20.5
2023-07-04T11:26:38.573Z,20.5
2023-07-04T11:28:38.623Z,20.1
2023-07-04T11:30:38.634Z,20.2
2023-07-04T11:32:38.775Z,20.5
2023-07-04T11:34:38.596Z,20.4
2023-07-04T11:36:38.545Z,20.8
2023-07-04T11:38:38.525Z,20.8
2023-07-04T11:40:38.597Z,20.4
2023-07-04T11:42:38.600Z,20.3
2023-07-04T11:44:40.239Z,20.2
2023-07-04T11:46:38.776Z,20.4
2023-07-04T11:48:38.690Z,20.2
2023-07-04T11:50:38.757Z,20.3
2023-07-04T11:52:38.781Z,20.5
2023-07-04T11:54:38.696Z,20.5
2023-07-04T11:56:38.709Z,20.5
2023-07-04T11:58:38.685Z,20.4
2023-07-04T12:00:38.720Z,20.2
2023-07-04T12:02:38.872Z,20.2
2023-07-04T12:04:41.541Z,20.3
2023-07-04T12:06:38.873Z,20.2
2023-07-04T12:08:38.614Z,20.4
2023-07-04T12:10:38.690Z,20.4
2023-07-04T12:12:38.755Z,20.6
2023-07-04T12:14:43.779Z,20.7
2023-07-04T12:16:39.039Z,21.0
2023-07-04T12:18:38.698Z,21.1
2023-07-04T12:20:41.041Z,21.4
2023-07-04T12:22:38.977Z,21.0
2023-07-04T12:24:38.717Z,21.1
2023-07-04T12:26:38.655Z,21.1
2023-07-04T12:28:38.832Z,21.1
2023-07-04T12:30:39.179Z,21.2
2023-07-04T12:32:38.747Z,21.1
2023-07-04T12:36:38.779Z,21.3
2023-07-04T12:42:38.834Z,21.0
2023-07-04T12:50:58.020Z,21.0
2023-07-04T12:52:57.902Z,20.9
2023-07-04T12:54:57.947Z,21.0
2023-07-04T12:56:57.925Z,21.1
2023-07-04T12:58:59.417Z,21.0
2023-07-04T13:01:00.447Z,21.0
2023-07-04T13:03:02.925Z,21.0
2023-07-04T13:04:57.922Z,21.1
2023-07-04T13:06:57.941Z,21.3
2023-07-04T13:08:57.955Z,21.0
2023-07-04T13:10:58.300Z,21.0
2023-07-04T13:12:58.164Z,20.9
2023-07-04T13:14:57.920Z,20.9
2023-07-04T13:16:58.134Z,20.7
2023-07-04T13:18:57.978Z,20.8
2023-07-04T13:20:57.956Z,20.6
2023-07-04T13:25:27.871Z,20.9
2023-07-04T13:27:12.592Z,21.0
2023-07-04T13:30:22.612Z,21.1
2023-07-04T13:33:00.720Z,21.1
2023-07-04T13:34:58.049Z,21.1
2023-07-04T13:36:58.006Z,21.2
2023-07-04T13:40:58.583Z,21.4
2023-07-04T13:45:11.575Z,21.3
2023-07-04T13:46:57.927Z,21.3
2023-07-04T13:48:57.976Z,21.0
2023-07-04T13:50:57.948Z,21.0
2023-07-04T13:53:12.825Z,21.0
2023-07-04T13:54:58.026Z,20.6
2023-07-04T13:56:57.964Z,20.3
2023-07-04T13:58:57.955Z,20.2
2023-07-04T14:05:40.375Z,20.0
2023-07-04T14:06:58.056Z,20.0
2023-07-04T14:08:58.030Z,20.0
2023-07-04T14:10:59.232Z,20.0
2023-07-04T14:12:58.027Z,19.8
2023-07-04T14:17:29.144Z,20.2
2023-07-04T14:21:01.356Z,20.4
2023-07-04T14:22:58.167Z,20.5
2023-07-04T14:24:58.033Z,20.6
2023-07-04T14:26:58.092Z,20.5
2023-07-04T14:28:58.080Z,20.4
2023-07-04T14:30:58.571Z,20.5
2023-07-04T14:33:00.163Z,20.0
2023-07-04T14:34:58.073Z,20.0
2023-07-04T14:37:02.884Z,19.6
2023-07-04T14:39:01.032Z,19.4
2023-07-04T14:42:58.074Z,19.6
2023-07-04T14:44:57.985Z,20.0
2023-07-04T14:46:58.043Z,19.9
2023-07-04T14:48:58.191Z,20.0
2023-07-04T14:50:58.123Z,20.1
2023-07-04T14:52:57.967Z,20.1
2023-07-04T14:54:57.973Z,20.4
2023-07-04T14:56:57.986Z,20.7
2023-07-04T14:59:02.938Z,20.8
2023-07-04T15:00:58.418Z,20.9
2023-07-04T15:02:58.076Z,20.9
2023-07-04T15:04:58.082Z,20.9
2023-07-04T15:06:58.423Z,21.0
2023-07-04T15:08:58.059Z,21.1
2023-07-04T15:10:58.103Z,21.1
2023-07-04T15:12:58.175Z,21.3
2023-07-04T15:14:57.981Z,21.2
2023-07-04T15:16:58.378Z,20.9
2023-07-04T15:18:58.103Z,20.8
2023-07-04T15:20:58.044Z,20.5
2023-07-04T15:22:58.028Z,20.5
2023-07-04T15:24:58.043Z,20.4
2023-07-04T15:26:58.033Z,20.4
2023-07-04T15:29:02.921Z,20.5
2023-07-04T15:30:58.289Z,20.5
2023-07-04T15:32:58.290Z,20.5
2023-07-04T15:35:58.285Z,20.7
2023-07-04T15:37:58.297Z,20.6
2023-07-04T15:39:58.154Z,20.7
2023-07-04T15:41:58.150Z,20.8
2023-07-04T15:43:58.327Z,20.6
2023-07-04T15:45:58.267Z,20.4
2023-07-04T15:47:58.308Z,20.5
2023-07-04T15:49:58.255Z,20.4
2023-07-04T15:51:58.298Z,20.2
2023-07-04T15:53:58.163Z,20.6
2023-07-04T15:55:58.189Z,20.4
2023-07-04T15:57:58.248Z,20.5
2023-07-04T16:00:03.042Z,20.1
2023-07-04T16:01:58.216Z,20.4
2023-07-04T16:03:58.372Z,20.6
2023-07-04T16:05:58.273Z,20.6
2023-07-04T16:07:58.176Z,20.9
2023-07-04T16:09:58.277Z,21.2
2023-07-04T16:11:58.351Z,21.0
2023-07-04T16:13:58.446Z,21.2
2023-07-04T16:15:58.395Z,21.4
2023-07-04T16:17:58.385Z,21.1
2023-07-04T16:20:00.786Z,21.3
2023-07-04T16:21:58.066Z,21.5
2023-07-04T16:23:58.607Z,21.6
2023-07-04T16:25:58.201Z,21.5
2023-07-04T16:27:58.116Z,21.5
2023-07-04T16:29:58.321Z,21.1
2023-07-04T16:31:58.877Z,21.4
2023-07-04T16:34:02.318Z,21.5
2023-07-04T16:35:58.321Z,21.2
2023-07-04T16:37:58.186Z,21.3
2023-07-04T16:39:58.494Z,21.5
2023-07-04T16:41:58.125Z,21.3
2023-07-04T16:43:58.140Z,21.2
2023-07-04T16:45:58.990Z,21.4
2023-07-04T16:47:58.462Z,21.5
2023-07-04T16:49:58.459Z,21.8
2023-07-04T16:51:58.262Z,21.9
2023-07-04T16:53:59.684Z,21.5
2023-07-04T16:55:58.176Z,21.5
2023-07-04T16:57:58.234Z,21.7
2023-07-04T16:59:58.274Z,22.0
2023-07-04T17:02:00.784Z,22.0
2023-07-04T17:03:58.270Z,21.7
2023-07-04T17:06:03.854Z,21.3
2023-07-04T17:08:00.252Z,21.1
2023-07-04T17:09:58.302Z,20.8
2023-07-04T17:11:58.362Z,17.0
2023-07-04T17:13:58.342Z,21.0
2023-07-04T17:16:07.002Z,21.6
2023-07-04T17:17:58.298Z,19.7
2023-07-04T17:19:58.395Z,19.2
2023-07-04T17:21:58.165Z,19.9
2023-07-04T17:23:58.165Z,20.5
2023-07-04T17:26:03.031Z,20.1
2023-07-04T17:27:58.196Z,26.0
2023-07-04T17:29:58.291Z,25.0
2023-07-04T17:31:58.552Z,22.8
2023-07-04T17:33:58.260Z,21.7
2023-07-04T17:35:58.671Z,22.0
2023-07-04T17:37:58.173Z,21.1
2023-07-04T17:39:58.681Z,21.7
2023-07-04T17:41:58.186Z,20.7
2023-07-04T17:44:01.290Z,20.4
2023-07-04T17:45:58.274Z,20.7
2023-07-04T17:47:58.234Z,20.9
2023-07-04T17:49:58.216Z,21.2
2023-07-04T17:51:58.442Z,20.9
2023-07-04T17:53:58.196Z,20.7
2023-07-04T17:55:58.221Z,20.9
2023-07-04T17:57:58.207Z,20.9
2023-07-04T17:59:58.296Z,21.1
2023-07-04T18:01:58.232Z,20.9
2023-07-04T18:03:58.390Z,21.1
2023-07-04T18:05:58.464Z,21.3
2023-07-04T18:07:58.204Z,21.3
2023-07-04T18:09:58.213Z,21.3
2023-07-04T18:11:58.365Z,21.2
2023-07-04T18:13:58.277Z,21.1
2023-07-04T18:15:58.219Z,21.1
2023-07-04T18:17:58.403Z,21.0
2023-07-04T18:19:59.496Z,20.9
2023-07-04T18:21:58.245Z,20.9
2023-07-04T18:23:58.289Z,20.9
2023-07-04T18:25:58.938Z,21.0
2023-07-04T18:27:58.189Z,20.9
2023-07-04T18:29:58.182Z,20.7
2023-07-04T18:31:58.367Z,20.6
2023-07-04T18:34:01.410Z,20.5
2023-07-04T18:35:58.303Z,20.5
2023-07-04T18:37:58.247Z,20.5
2023-07-04T18:39:58.256Z,20.2
2023-07-04T18:41:58.412Z,20.6
2023-07-04T18:43:58.186Z,21.0
2023-07-04T18:45:58.297Z,20.8
2023-07-04T18:47:58.462Z,20.4
2023-07-04T18:49:58.295Z,20.0
2023-07-04T18:51:58.509Z,20.0
2023-07-04T18:53:58.445Z,20.1
2023-07-04T18:55:59.717Z,20.1
2023-07-04T18:58:01.067Z,20.2
2023-07-04T19:00:01.323Z,20.4
2023-07-04T19:02:01.242Z,20.7
2023-07-04T19:03:58.655Z,20.7
2023-07-04T19:05:58.421Z,20.7
2023-07-04T19:07:58.469Z,20.9
2023-07-04T19:10:10.359Z,20.8
2023-07-04T19:11:58.545Z,20.7
2023-07-04T19:14:14.224Z,20.7
2023-07-04T19:16:14.173Z,21.1
2023-07-04T19:18:14.464Z,21.2
2023-07-04T19:20:17.110Z,21.5
2023-07-04T19:22:14.165Z,21.9
2023-07-04T19:24:14.282Z,21.8
2023-07-04T19:26:17.239Z,21.7
2023-07-04T19:28:14.208Z,21.8
2023-07-04T19:30:20.165Z,21.8
2023-07-04T19:32:14.284Z,21.8
2023-07-04T19:34:14.326Z,21.9
2023-07-04T19:36:20.132Z,22.0
2023-07-04T19:38:14.213Z,22.1
2023-07-04T19:40:28.432Z,22.1
2023-07-04T19:42:14.194Z,22.0
2023-07-04T19:44:14.408Z,21.7
2023-07-04T19:46:17.018Z,21.7
2023-07-04T19:48:21.446Z,21.9
2023-07-04T19:50:16.221Z,22.5
2023-07-04T19:52:14.198Z,22.5
2023-07-04T19:54:15.919Z,22.6
2023-07-04T19:56:14.216Z,22.7
2023-07-04T19:58:14.271Z,22.5
2023-07-04T20:00:23.045Z,22.2
2023-07-04T20:02:14.384Z,21.9
2023-07-04T20:04:23.057Z,21.9
2023-07-04T20:06:16.893Z,21.9
2023-07-04T20:08:28.631Z,21.6
2023-07-04T20:10:17.172Z,21.8
2023-07-04T20:12:14.347Z,22.1
2023-07-04T20:14:16.886Z,22.0
2023-07-04T20:16:17.000Z,21.7
2023-07-04T20:18:17.132Z,21.7
2023-07-04T20:20:17.193Z,21.2
2023-07-04T20:22:14.350Z,20.9
2023-07-04T20:24:24.500Z,21.1
2023-07-04T20:26:14.221Z,21.0
2023-07-04T20:28:16.894Z,21.1
2023-07-04T20:30:17.208Z,21.1
2023-07-04T20:32:20.332Z,21.2
2023-07-04T20:35:14.453Z,21.1
2023-07-04T20:37:14.239Z,20.9
2023-07-04T20:39:17.013Z,21.2
2023-07-04T20:41:14.222Z,21.0
2023-07-04T20:43:19.082Z,21.1
2023-07-04T20:45:14.304Z,21.3
2023-07-04T20:46:29.618Z,21.2
2023-07-04T20:49:14.257Z,21.3
2023-07-04T20:51:14.227Z,21.2
2023-07-04T20:53:19.096Z,21.2
2023-07-04T20:55:14.249Z,21.0
2023-07-04T20:57:14.377Z,20.7
2023-07-04T20:59:14.265Z,20.6
2023-07-04T21:01:14.237Z,20.8
2023-07-04T21:03:14.188Z,20.5
2023-07-04T21:05:17.193Z,20.3
2023-07-04T21:07:18.216Z,20.2
2023-07-04T21:09:14.358Z,20.5
2023-07-04T21:11:14.489Z,20.3
2023-07-04T21:13:14.259Z,19.9
2023-07-04T21:15:14.254Z,15.5
2023-07-04T21:17:14.292Z,19.5
2023-07-04T21:19:14.276Z,20.3
2023-07-04T21:21:14.248Z,20.3
2023-07-04T21:23:14.225Z,19.0
2023-07-04T21:25:14.419Z,19.3
2023-07-04T21:27:20.231Z,19.4
2023-07-04T21:29:17.114Z,20.1
2023-07-04T21:31:14.373Z,20.8
2023-07-04T21:33:14.254Z,20.7
2023-07-04T21:35:16.834Z,20.4
2023-07-04T21:37:14.246Z,20.4
2023-07-04T21:39:15.154Z,20.3
2023-07-04T21:41:16.869Z,20.8
2023-07-04T21:43:14.313Z,20.5
2023-07-04T21:45:14.247Z,20.3
2023-07-04T21:47:14.493Z,20.0
2023-07-04T21:49:14.249Z,20.2
2023-07-04T21:51:17.020Z,20.5
2023-07-04T21:53:17.065Z,20.4
2023-07-04T21:55:25.853Z,20.7
2023-07-04T21:57:14.304Z,20.6
2023-07-04T21:59:19.841Z,20.3
2023-07-04T22:01:16.484Z,20.3
2023-07-04T22:03:14.371Z,20.3
2023-07-04T22:05:16.742Z,20.1
2023-07-04T22:07:14.340Z,20.1
2023-07-04T22:09:17.442Z,20.0
2023-07-04T22:11:17.073Z,20.0
2023-07-04T22:13:17.307Z,20.0
2023-07-04T22:15:14.327Z,20.0
2023-07-04T22:17:14.407Z,20.0
2023-07-04T22:19:14.372Z,20.2
2023-07-04T22:21:28.590Z,20.2
2023-07-04T22:23:14.560Z,20.3
2023-07-04T22:25:14.327Z,20.3
2023-07-04T22:27:20.318Z,20.3
2023-07-04T22:29:14.422Z,20.2
2023-07-04T22:31:14.365Z,20.1
2023-07-04T22:33:17.826Z,20.1
2023-07-04T22:35:14.320Z,20.4
2023-07-04T22:37:14.318Z,20.3
2023-07-04T22:39:14.300Z,20.3
2023-07-04T22:41:14.894Z,19.9
2023-07-04T22:43:14.494Z,19.9
2023-07-04T22:45:14.383Z,19.7
2023-07-04T22:47:14.616Z,19.9
2023-07-04T22:49:23.862Z,19.9
2023-07-04T22:51:17.294Z,19.6
2023-07-04T22:53:14.286Z,19.6
2023-07-04T22:55:14.495Z,19.1
2023-07-04T22:57:14.292Z,19.3
2023-07-04T22:59:19.210Z,19.4
2023-07-04T23:01:14.536Z,19.3
2023-07-04T23:03:14.493Z,19.2
2023-07-04T23:05:17.134Z,19.4
2023-07-04T23:07:14.917Z,19.2
2023-07-04T23:09:14.314Z,19.3
2023-07-04T23:11:14.438Z,19.4
2023-07-04T23:13:17.072Z,19.4
2023-07-04T23:15:17.094Z,19.6
2023-07-04T23:17:14.533Z,19.6
2023-07-04T23:19:14.442Z,19.1
2023-07-04T23:21:15.797Z,19.3
2023-07-04T23:23:14.686Z,19.3
2023-07-04T23:25:28.605Z,19.4
2023-07-04T23:27:14.344Z,19.5
2023-07-04T23:29:14.653Z,19.4
2023-07-04T23:31:23.313Z,19.3
2023-07-04T23:33:19.300Z,19.5
2023-07-04T23:35:16.973Z,19.4
2023-07-04T23:37:15.408Z,19.8
2023-07-04T23:39:14.286Z,19.7
2023-07-04T23:41:14.383Z,19.9
2023-07-04T23:43:14.378Z,20.2
2023-07-04T23:45:14.344Z,20.5
2023-07-04T23:47:14.390Z,20.3
2023-07-04T23:49:14.367Z,20.4
2023-07-04T23:51:14.378Z,20.4
2023-07-04T23:53:14.467Z,20.5
2023-07-04T23:55:17.181Z,20.7
2023-07-04T23:57:17.292Z,20.6
2023-07-04T23:59:14.345Z,20.7
